sensor_id;sensor_type;location;lat;lon;timestamp;P1;durP1;ratioP1;P2;durP2;ratioP2
23782;SDS011;12071;50.850;4.446;2024-01-16T00:00:33;16.58;;;4.47;;
23782;SDS011;12071;50.850;4.446;2024-01-16T00:02:59;13.38;;;4.28;;
23782;SDS011;12071;50.850;4.446;2024-01-16T00:05:25;10.18;;;3.72;;
23782;SDS011;12071;50.850;4.446;2024-01-16T00:07:51;9.15;;;4.03;;
23782;SDS011;12071;50.850;4.446;2024-01-16T00:10:17;11.95;;;4.15;;
23782;SDS011;12071;50.850;4.446;2024-01-16T00:12:42;15.07;;;4.68;;
23782;SDS011;12071;50.850;4.446;2024-01-16T00:15:08;10.23;;;3.88;;
23782;SDS011;12071;50.850;4.446;2024-01-16T00:17:34;10.52;;;4.38;;
23782;SDS011;12071;50.850;4.446;2024-01-16T00:20:00;8.95;;;3.95;;
23782;SDS011;12071;50.850;4.446;2024-01-16T00:22:26;9.45;;;4.13;;
23782;SDS011;12071;50.850;4.446;2024-01-16T00:24:52;9.63;;;4.13;;
23782;SDS011;12071;50.850;4.446;2024-01-16T00:27:18;13.88;;;4.60;;
23782;SDS011;12071;50.850;4.446;2024-01-16T00:29:44;13.68;;;5.00;;
23782;SDS011;12071;50.850;4.446;2024-01-16T00:32:09;14.02;;;5.25;;
23782;SDS011;12071;50.850;4.446;2024-01-16T00:34:35;15.80;;;4.88;;
23782;SDS011;12071;50.850;4.446;2024-01-16T00:37:01;13.85;;;4.97;;
23782;SDS011;12071;50.850;4.446;2024-01-16T00:39:27;16.15;;;4.55;;
23782;SDS011;12071;50.850;4.446;2024-01-16T00:41:52;11.43;;;5.18;;
23782;SDS011;12071;50.850;4.446;2024-01-16T00:44:18;16.67;;;5.30;;
23782;SDS011;12071;50.850;4.446;2024-01-16T00:46:43;13.10;;;4.72;;
23782;SDS011;12071;50.850;4.446;2024-01-16T00:49:09;11.55;;;5.13;;
23782;SDS011;12071;50.850;4.446;2024-01-16T00:51:35;12.50;;;4.75;;
23782;SDS011;12071;50.850;4.446;2024-01-16T00:54:00;15.75;;;5.30;;
23782;SDS011;12071;50.850;4.446;2024-01-16T00:56:26;10.82;;;4.68;;
23782;SDS011;12071;50.850;4.446;2024-01-16T00:58:52;12.68;;;4.57;;
23782;SDS011;12071;50.850;4.446;2024-01-16T01:01:19;15.38;;;5.10;;
23782;SDS011;12071;50.850;4.446;2024-01-16T01:03:48;18.40;;;4.50;;
23782;SDS011;12071;50.850;4.446;2024-01-16T01:06:13;11.77;;;4.20;;
23782;SDS011;12071;50.850;4.446;2024-01-16T01:08:39;18.17;;;4.25;;
23782;SDS011;12071;50.850;4.446;2024-01-16T01:11:05;11.73;;;4.28;;
23782;SDS011;12071;50.850;4.446;2024-01-16T01:13:30;11.30;;;4.35;;
23782;SDS011;12071;50.850;4.446;2024-01-16T01:15:56;9.52;;;4.57;;
23782;SDS011;12071;50.850;4.446;2024-01-16T01:18:22;10.55;;;4.80;;
23782;SDS011;12071;50.850;4.446;2024-01-16T01:20:48;11.88;;;4.30;;
23782;SDS011;12071;50.850;4.446;2024-01-16T01:23:14;14.20;;;4.85;;
23782;SDS011;12071;50.850;4.446;2024-01-16T01:25:39;11.35;;;4.50;;
23782;SDS011;12071;50.850;4.446;2024-01-16T01:28:05;11.38;;;4.30;;
23782;SDS011;12071;50.850;4.446;2024-01-16T01:30:31;16.25;;;5.55;;
23782;SDS011;12071;50.850;4.446;2024-01-16T01:32:57;20.20;;;5.50;;
23782;SDS011;12071;50.850;4.446;2024-01-16T01:35:23;16.83;;;5.50;;
23782;SDS011;12071;50.850;4.446;2024-01-16T01:37:49;12.60;;;4.80;;
23782;SDS011;12071;50.850;4.446;2024-01-16T01:40:14;10.88;;;4.72;;
23782;SDS011;12071;50.850;4.446;2024-01-16T01:42:41;13.70;;;4.65;;
23782;SDS011;12071;50.850;4.446;2024-01-16T01:45:08;15.73;;;5.15;;
23782;SDS011;12071;50.850;4.446;2024-01-16T01:47:35;11.13;;;4.78;;
23782;SDS011;12071;50.850;4.446;2024-01-16T01:50:01;12.85;;;4.60;;
23782;SDS011;12071;50.850;4.446;2024-01-16T01:52:28;12.85;;;4.38;;
23782;SDS011;12071;50.850;4.446;2024-01-16T01:54:56;12.18;;;4.45;;
23782;SDS011;12071;50.850;4.446;2024-01-16T01:57:22;10.93;;;5.25;;
23782;SDS011;12071;50.850;4.446;2024-01-16T01:59:48;10.43;;;3.88;;
23782;SDS011;12071;50.850;4.446;2024-01-16T02:02:15;8.23;;;4.63;;
23782;SDS011;12071;50.850;4.446;2024-01-16T02:04:42;14.70;;;4.43;;
23782;SDS011;12071;50.850;4.446;2024-01-16T02:07:09;13.85;;;4.50;;
23782;SDS011;12071;50.850;4.446;2024-01-16T02:09:35;11.00;;;4.35;;
23782;SDS011;12071;50.850;4.446;2024-01-16T02:12:01;12.00;;;4.30;;
23782;SDS011;12071;50.850;4.446;2024-01-16T02:14:27;6.50;;;3.60;;
23782;SDS011;12071;50.850;4.446;2024-01-16T02:16:53;8.93;;;4.10;;
23782;SDS011;12071;50.850;4.446;2024-01-16T02:19:18;11.43;;;4.25;;
23782;SDS011;12071;50.850;4.446;2024-01-16T02:24:15;13.00;;;4.05;;
23782;SDS011;12071;50.850;4.446;2024-01-16T02:26:42;11.48;;;3.80;;
23782;SDS011;12071;50.850;4.446;2024-01-16T02:29:08;16.38;;;3.85;;
23782;SDS011;12071;50.850;4.446;2024-01-16T02:31:34;13.65;;;4.15;;
23782;SDS011;12071;50.850;4.446;2024-01-16T02:34:00;12.45;;;4.03;;
23782;SDS011;12071;50.850;4.446;2024-01-16T02:36:28;11.90;;;4.05;;
23782;SDS011;12071;50.850;4.446;2024-01-16T02:38:56;12.73;;;3.92;;
23782;SDS011;12071;50.850;4.446;2024-01-16T02:41:22;8.75;;;4.18;;
23782;SDS011;12071;50.850;4.446;2024-01-16T02:43:48;9.10;;;3.60;;
23782;SDS011;12071;50.850;4.446;2024-01-16T02:46:14;10.52;;;3.85;;
23782;SDS011;12071;50.850;4.446;2024-01-16T02:48:39;10.35;;;3.65;;
23782;SDS011;12071;50.850;4.446;2024-01-16T02:51:07;11.63;;;4.05;;
23782;SDS011;12071;50.850;4.446;2024-01-16T02:53:33;13.88;;;4.00;;
23782;SDS011;12071;50.850;4.446;2024-01-16T02:55:59;11.70;;;3.97;;
23782;SDS011;12071;50.850;4.446;2024-01-16T02:58:25;12.18;;;4.00;;
23782;SDS011;12071;50.850;4.446;2024-01-16T03:00:55;8.65;;;4.00;;
23782;SDS011;12071;50.850;4.446;2024-01-16T03:03:22;7.40;;;3.83;;
23782;SDS011;12071;50.850;4.446;2024-01-16T03:05:49;8.98;;;3.58;;
23782;SDS011;12071;50.850;4.446;2024-01-16T03:08:15;10.15;;;3.97;;
23782;SDS011;12071;50.850;4.446;2024-01-16T03:10:41;14.23;;;3.92;;
23782;SDS011;12071;50.850;4.446;2024-01-16T03:13:07;12.00;;;4.28;;
23782;SDS011;12071;50.850;4.446;2024-01-16T03:15:33;10.20;;;3.05;;
23782;SDS011;12071;50.850;4.446;2024-01-16T03:17:59;9.48;;;3.65;;
23782;SDS011;12071;50.850;4.446;2024-01-16T03:20:27;10.25;;;3.90;;
23782;SDS011;12071;50.850;4.446;2024-01-16T03:22:53;10.57;;;3.70;;
23782;SDS011;12071;50.850;4.446;2024-01-16T03:25:19;10.13;;;3.92;;
23782;SDS011;12071;50.850;4.446;2024-01-16T03:27:46;11.15;;;4.05;;
23782;SDS011;12071;50.850;4.446;2024-01-16T03:30:12;14.27;;;4.57;;
23782;SDS011;12071;50.850;4.446;2024-01-16T03:32:38;9.90;;;3.90;;
23782;SDS011;12071;50.850;4.446;2024-01-16T03:35:04;14.27;;;5.32;;
23782;SDS011;12071;50.850;4.446;2024-01-16T03:37:30;13.55;;;4.15;;
23782;SDS011;12071;50.850;4.446;2024-01-16T03:39:56;12.85;;;4.63;;
23782;SDS011;12071;50.850;4.446;2024-01-16T03:42:22;10.93;;;4.55;;
23782;SDS011;12071;50.850;4.446;2024-01-16T03:44:48;10.23;;;4.13;;
23782;SDS011;12071;50.850;4.446;2024-01-16T03:47:14;7.38;;;3.38;;
23782;SDS011;12071;50.850;4.446;2024-01-16T03:49:40;11.50;;;3.97;;
23782;SDS011;12071;50.850;4.446;2024-01-16T03:52:06;8.98;;;3.65;;
23782;SDS011;12071;50.850;4.446;2024-01-16T03:54:32;12.93;;;4.07;;
23782;SDS011;12071;50.850;4.446;2024-01-16T03:56:58;10.35;;;3.95;;
23782;SDS011;12071;50.850;4.446;2024-01-16T03:59:23;13.20;;;4.57;;
23782;SDS011;12071;50.850;4.446;2024-01-16T04:01:49;10.35;;;4.68;;
23782;SDS011;12071;50.850;4.446;2024-01-16T04:04:15;9.10;;;4.00;;
23782;SDS011;12071;50.850;4.446;2024-01-16T04:06:41;15.90;;;4.47;;
23782;SDS011;12071;50.850;4.446;2024-01-16T04:09:08;8.55;;;4.18;;
23782;SDS011;12071;50.850;4.446;2024-01-16T04:11:34;9.90;;;4.72;;
23782;SDS011;12071;50.850;4.446;2024-01-16T04:14:00;13.23;;;4.55;;
23782;SDS011;12071;50.850;4.446;2024-01-16T04:16:26;14.93;;;4.72;;
23782;SDS011;12071;50.850;4.446;2024-01-16T04:18:52;9.68;;;4.47;;
23782;SDS011;12071;50.850;4.446;2024-01-16T04:21:17;11.30;;;4.30;;
23782;SDS011;12071;50.850;4.446;2024-01-16T04:23:43;13.48;;;3.92;;
23782;SDS011;12071;50.850;4.446;2024-01-16T04:26:09;13.40;;;4.80;;
23782;SDS011;12071;50.850;4.446;2024-01-16T04:28:35;9.98;;;4.47;;
23782;SDS011;12071;50.850;4.446;2024-01-16T04:31:02;16.05;;;5.28;;
23782;SDS011;12071;50.850;4.446;2024-01-16T04:33:29;14.35;;;5.50;;
23782;SDS011;12071;50.850;4.446;2024-01-16T04:35:55;12.35;;;5.18;;
23782;SDS011;12071;50.850;4.446;2024-01-16T04:38:21;15.27;;;5.55;;
23782;SDS011;12071;50.850;4.446;2024-01-16T04:40:46;12.13;;;4.93;;
23782;SDS011;12071;50.850;4.446;2024-01-16T04:43:12;13.40;;;5.72;;
23782;SDS011;12071;50.850;4.446;2024-01-16T04:45:38;12.55;;;4.97;;
23782;SDS011;12071;50.850;4.446;2024-01-16T04:48:04;8.50;;;4.80;;
23782;SDS011;12071;50.850;4.446;2024-01-16T04:50:30;12.43;;;4.88;;
23782;SDS011;12071;50.850;4.446;2024-01-16T04:52:58;14.88;;;5.43;;
23782;SDS011;12071;50.850;4.446;2024-01-16T04:55:25;17.50;;;5.78;;
23782;SDS011;12071;50.850;4.446;2024-01-16T04:57:52;15.02;;;5.50;;
23782;SDS011;12071;50.850;4.446;2024-01-16T05:00:18;7.85;;;4.95;;
23782;SDS011;12071;50.850;4.446;2024-01-16T05:02:44;12.70;;;5.85;;
23782;SDS011;12071;50.850;4.446;2024-01-16T05:05:09;11.75;;;4.90;;
23782;SDS011;12071;50.850;4.446;2024-01-16T05:07:35;12.63;;;5.13;;
23782;SDS011;12071;50.850;4.446;2024-01-16T05:10:01;13.52;;;6.22;;
23782;SDS011;12071;50.850;4.446;2024-01-16T05:12:27;13.93;;;5.35;;
23782;SDS011;12071;50.850;4.446;2024-01-16T05:14:53;20.45;;;6.18;;
23782;SDS011;12071;50.850;4.446;2024-01-16T05:17:18;16.05;;;4.93;;
23782;SDS011;12071;50.850;4.446;2024-01-16T05:19:44;11.77;;;5.15;;
23782;SDS011;12071;50.850;4.446;2024-01-16T05:22:10;12.48;;;4.78;;
23782;SDS011;12071;50.850;4.446;2024-01-16T05:24:36;14.38;;;5.85;;
23782;SDS011;12071;50.850;4.446;2024-01-16T05:27:02;12.38;;;5.03;;
23782;SDS011;12071;50.850;4.446;2024-01-16T05:29:29;13.73;;;5.57;;
23782;SDS011;12071;50.850;4.446;2024-01-16T05:31:56;11.88;;;5.45;;
23782;SDS011;12071;50.850;4.446;2024-01-16T05:34:22;9.90;;;5.03;;
23782;SDS011;12071;50.850;4.446;2024-01-16T05:36:48;13.27;;;5.30;;
23782;SDS011;12071;50.850;4.446;2024-01-16T05:39:13;14.07;;;5.70;;
23782;SDS011;12071;50.850;4.446;2024-01-16T05:41:39;11.23;;;5.47;;
23782;SDS011;12071;50.850;4.446;2024-01-16T05:44:05;11.68;;;6.00;;
23782;SDS011;12071;50.850;4.446;2024-01-16T05:46:31;13.73;;;5.47;;
23782;SDS011;12071;50.850;4.446;2024-01-16T05:48:57;12.25;;;5.28;;
23782;SDS011;12071;50.850;4.446;2024-01-16T05:51:23;14.00;;;5.13;;
23782;SDS011;12071;50.850;4.446;2024-01-16T05:53:49;17.20;;;5.78;;
23782;SDS011;12071;50.850;4.446;2024-01-16T05:56:14;16.15;;;6.45;;
23782;SDS011;12071;50.850;4.446;2024-01-16T05:58:40;14.13;;;5.93;;
23782;SDS011;12071;50.850;4.446;2024-01-16T06:01:06;14.45;;;6.28;;
23782;SDS011;12071;50.850;4.446;2024-01-16T06:03:31;12.77;;;5.28;;
23782;SDS011;12071;50.850;4.446;2024-01-16T06:05:58;11.23;;;5.47;;
23782;SDS011;12071;50.850;4.446;2024-01-16T06:08:24;12.23;;;5.70;;
23782;SDS011;12071;50.850;4.446;2024-01-16T06:10:50;11.90;;;5.30;;
23782;SDS011;12071;50.850;4.446;2024-01-16T06:13:16;11.85;;;5.00;;
23782;SDS011;12071;50.850;4.446;2024-01-16T06:15:45;13.77;;;5.35;;
23782;SDS011;12071;50.850;4.446;2024-01-16T06:18:10;18.33;;;5.90;;
23782;SDS011;12071;50.850;4.446;2024-01-16T06:20:36;14.35;;;5.90;;
23782;SDS011;12071;50.850;4.446;2024-01-16T06:23:02;16.92;;;5.40;;
23782;SDS011;12071;50.850;4.446;2024-01-16T06:25:29;17.13;;;5.55;;
23782;SDS011;12071;50.850;4.446;2024-01-16T06:27:54;14.82;;;5.20;;
23782;SDS011;12071;50.850;4.446;2024-01-16T06:30:21;11.40;;;5.15;;
23782;SDS011;12071;50.850;4.446;2024-01-16T06:32:48;17.13;;;5.88;;
23782;SDS011;12071;50.850;4.446;2024-01-16T06:35:14;11.82;;;4.90;;
23782;SDS011;12071;50.850;4.446;2024-01-16T06:37:40;16.17;;;5.93;;
23782;SDS011;12071;50.850;4.446;2024-01-16T06:40:06;12.70;;;5.75;;
23782;SDS011;12071;50.850;4.446;2024-01-16T06:42:32;16.25;;;5.82;;
23782;SDS011;12071;50.850;4.446;2024-01-16T06:44:58;14.50;;;5.82;;
23782;SDS011;12071;50.850;4.446;2024-01-16T06:47:24;11.48;;;6.05;;
23782;SDS011;12071;50.850;4.446;2024-01-16T06:49:50;12.40;;;5.43;;
23782;SDS011;12071;50.850;4.446;2024-01-16T06:52:15;14.75;;;5.68;;
23782;SDS011;12071;50.850;4.446;2024-01-16T06:54:41;17.30;;;5.55;;
23782;SDS011;12071;50.850;4.446;2024-01-16T06:57:06;14.38;;;5.30;;
23782;SDS011;12071;50.850;4.446;2024-01-16T06:59:32;18.10;;;5.57;;
23782;SDS011;12071;50.850;4.446;2024-01-16T07:01:58;17.42;;;6.18;;
23782;SDS011;12071;50.850;4.446;2024-01-16T07:04:23;16.67;;;6.15;;
23782;SDS011;12071;50.850;4.446;2024-01-16T07:06:49;15.20;;;5.53;;
23782;SDS011;12071;50.850;4.446;2024-01-16T07:09:14;12.70;;;5.50;;
23782;SDS011;12071;50.850;4.446;2024-01-16T07:11:41;11.82;;;5.80;;
23782;SDS011;12071;50.850;4.446;2024-01-16T07:14:08;18.42;;;5.78;;
23782;SDS011;12071;50.850;4.446;2024-01-16T07:16:35;12.95;;;6.00;;
23782;SDS011;12071;50.850;4.446;2024-01-16T07:19:01;14.85;;;5.60;;
23782;SDS011;12071;50.850;4.446;2024-01-16T07:21:27;15.13;;;5.57;;
23782;SDS011;12071;50.850;4.446;2024-01-16T07:23:53;16.05;;;5.95;;
23782;SDS011;12071;50.850;4.446;2024-01-16T07:26:19;16.30;;;5.30;;
23782;SDS011;12071;50.850;4.446;2024-01-16T07:28:45;9.90;;;4.85;;
23782;SDS011;12071;50.850;4.446;2024-01-16T07:31:13;12.48;;;5.30;;
23782;SDS011;12071;50.850;4.446;2024-01-16T07:33:38;13.02;;;5.43;;
23782;SDS011;12071;50.850;4.446;2024-01-16T07:36:05;12.65;;;5.30;;
23782;SDS011;12071;50.850;4.446;2024-01-16T07:38:31;13.52;;;5.20;;
23782;SDS011;12071;50.850;4.446;2024-01-16T07:40:57;9.13;;;4.78;;
23782;SDS011;12071;50.850;4.446;2024-01-16T07:43:23;14.35;;;5.43;;
23782;SDS011;12071;50.850;4.446;2024-01-16T07:45:49;13.00;;;5.60;;
23782;SDS011;12071;50.850;4.446;2024-01-16T07:48:15;10.07;;;4.57;;
23782;SDS011;12071;50.850;4.446;2024-01-16T07:50:40;12.65;;;5.45;;
23782;SDS011;12071;50.850;4.446;2024-01-16T07:53:06;11.23;;;5.10;;
23782;SDS011;12071;50.850;4.446;2024-01-16T07:55:32;12.88;;;5.25;;
23782;SDS011;12071;50.850;4.446;2024-01-16T07:57:57;13.55;;;5.03;;
23782;SDS011;12071;50.850;4.446;2024-01-16T08:00:23;10.63;;;5.32;;
23782;SDS011;12071;50.850;4.446;2024-01-16T08:02:49;13.82;;;4.82;;
23782;SDS011;12071;50.850;4.446;2024-01-16T08:05:14;11.45;;;5.45;;
23782;SDS011;12071;50.850;4.446;2024-01-16T08:07:42;14.93;;;5.30;;
23782;SDS011;12071;50.850;4.446;2024-01-16T08:10:08;17.77;;;5.43;;
23782;SDS011;12071;50.850;4.446;2024-01-16T08:12:34;10.85;;;5.13;;
23782;SDS011;12071;50.850;4.446;2024-01-16T08:15:01;10.23;;;5.07;;
23782;SDS011;12071;50.850;4.446;2024-01-16T08:17:26;13.00;;;5.30;;
23782;SDS011;12071;50.850;4.446;2024-01-16T08:19:52;12.20;;;5.13;;
23782;SDS011;12071;50.850;4.446;2024-01-16T08:22:18;12.07;;;4.70;;
23782;SDS011;12071;50.850;4.446;2024-01-16T08:24:44;12.63;;;4.80;;
23782;SDS011;12071;50.850;4.446;2024-01-16T08:27:10;8.38;;;4.38;;
23782;SDS011;12071;50.850;4.446;2024-01-16T08:29:35;9.50;;;5.03;;
23782;SDS011;12071;50.850;4.446;2024-01-16T08:32:01;12.15;;;4.47;;
23782;SDS011;12071;50.850;4.446;2024-01-16T08:34:26;9.30;;;4.18;;
23782;SDS011;12071;50.850;4.446;2024-01-16T08:36:52;13.25;;;4.38;;
23782;SDS011;12071;50.850;4.446;2024-01-16T08:39:21;14.15;;;4.43;;
23782;SDS011;12071;50.850;4.446;2024-01-16T08:41:48;10.70;;;4.13;;
23782;SDS011;12071;50.850;4.446;2024-01-16T08:44:14;9.15;;;4.13;;
23782;SDS011;12071;50.850;4.446;2024-01-16T08:46:40;11.82;;;3.88;;
23782;SDS011;12071;50.850;4.446;2024-01-16T08:49:05;10.40;;;3.90;;
23782;SDS011;12071;50.850;4.446;2024-01-16T08:51:31;7.85;;;4.00;;
23782;SDS011;12071;50.850;4.446;2024-01-16T08:53:56;10.77;;;3.88;;
23782;SDS011;12071;50.850;4.446;2024-01-16T08:56:22;12.38;;;3.90;;
23782;SDS011;12071;50.850;4.446;2024-01-16T08:58:48;10.00;;;3.80;;
23782;SDS011;12071;50.850;4.446;2024-01-16T09:01:13;10.85;;;4.00;;
23782;SDS011;12071;50.850;4.446;2024-01-16T09:03:39;13.20;;;3.72;;
23782;SDS011;12071;50.850;4.446;2024-01-16T09:06:06;11.45;;;3.70;;
23782;SDS011;12071;50.850;4.446;2024-01-16T09:08:31;8.77;;;3.28;;
23782;SDS011;12071;50.850;4.446;2024-01-16T09:10:57;8.25;;;3.92;;
23782;SDS011;12071;50.850;4.446;2024-01-16T09:13:23;14.50;;;4.10;;
23782;SDS011;12071;50.850;4.446;2024-01-16T09:15:48;14.27;;;3.85;;
23782;SDS011;12071;50.850;4.446;2024-01-16T09:18:15;11.50;;;3.88;;
23782;SDS011;12071;50.850;4.446;2024-01-16T09:20:41;9.52;;;3.95;;
23782;SDS011;12071;50.850;4.446;2024-01-16T09:23:07;9.63;;;3.10;;
23782;SDS011;12071;50.850;4.446;2024-01-16T09:25:34;11.43;;;3.90;;
23782;SDS011;12071;50.850;4.446;2024-01-16T09:28:00;9.43;;;3.30;;
23782;SDS011;12071;50.850;4.446;2024-01-16T09:30:26;10.52;;;4.00;;
23782;SDS011;12071;50.850;4.446;2024-01-16T09:32:52;11.02;;;4.07;;
23782;SDS011;12071;50.850;4.446;2024-01-16T09:35:18;10.68;;;3.35;;
23782;SDS011;12071;50.850;4.446;2024-01-16T09:37:43;9.77;;;3.47;;
23782;SDS011;12071;50.850;4.446;2024-01-16T09:40:10;9.82;;;3.65;;
23782;SDS011;12071;50.850;4.446;2024-01-16T09:42:36;6.35;;;3.20;;
23782;SDS011;12071;50.850;4.446;2024-01-16T09:45:02;8.85;;;3.20;;
23782;SDS011;12071;50.850;4.446;2024-01-16T09:47:28;10.00;;;3.22;;
23782;SDS011;12071;50.850;4.446;2024-01-16T09:49:57;9.85;;;3.88;;
23782;SDS011;12071;50.850;4.446;2024-01-16T09:52:25;9.70;;;3.53;;
23782;SDS011;12071;50.850;4.446;2024-01-16T09:54:51;8.45;;;3.28;;
23782;SDS011;12071;50.850;4.446;2024-01-16T09:57:17;7.00;;;3.50;;
23782;SDS011;12071;50.850;4.446;2024-01-16T09:59:48;10.75;;;3.42;;
23782;SDS011;12071;50.850;4.446;2024-01-16T10:02:13;8.27;;;3.67;;
23782;SDS011;12071;50.850;4.446;2024-01-16T10:04:42;9.57;;;3.90;;
23782;SDS011;12071;50.850;4.446;2024-01-16T10:07:09;7.47;;;3.45;;
23782;SDS011;12071;50.850;4.446;2024-01-16T10:09:38;6.82;;;2.97;;
23782;SDS011;12071;50.850;4.446;2024-01-16T10:12:04;7.43;;;3.35;;
23782;SDS011;12071;50.850;4.446;2024-01-16T10:14:35;6.95;;;3.38;;
23782;SDS011;12071;50.850;4.446;2024-01-16T10:17:02;10.00;;;3.42;;
23782;SDS011;12071;50.850;4.446;2024-01-16T10:19:35;9.43;;;3.85;;
23782;SDS011;12071;50.850;4.446;2024-01-16T10:22:12;8.30;;;3.03;;
23782;SDS011;12071;50.850;4.446;2024-01-16T10:24:37;11.10;;;3.75;;
23782;SDS011;12071;50.850;4.446;2024-01-16T10:27:03;14.20;;;3.50;;
23782;SDS011;12071;50.850;4.446;2024-01-16T10:29:29;13.50;;;3.75;;
23782;SDS011;12071;50.850;4.446;2024-01-16T10:31:56;13.43;;;3.70;;
23782;SDS011;12071;50.850;4.446;2024-01-16T10:34:23;12.30;;;3.47;;
23782;SDS011;12071;50.850;4.446;2024-01-16T10:36:50;8.65;;;3.55;;
23782;SDS011;12071;50.850;4.446;2024-01-16T10:39:19;13.95;;;4.30;;
23782;SDS011;12071;50.850;4.446;2024-01-16T10:41:53;9.98;;;3.60;;
23782;SDS011;12071;50.850;4.446;2024-01-16T10:44:20;7.63;;;3.40;;
23782;SDS011;12071;50.850;4.446;2024-01-16T10:46:46;9.93;;;3.58;;
23782;SDS011;12071;50.850;4.446;2024-01-16T10:49:12;11.10;;;3.63;;
23782;SDS011;12071;50.850;4.446;2024-01-16T10:51:37;10.85;;;3.30;;
23782;SDS011;12071;50.850;4.446;2024-01-16T10:54:07;15.75;;;3.38;;
23782;SDS011;12071;50.850;4.446;2024-01-16T10:56:41;7.35;;;3.17;;
23782;SDS011;12071;50.850;4.446;2024-01-16T11:01:45;13.65;;;3.83;;
23782;SDS011;12071;50.850;4.446;2024-01-16T11:04:16;9.85;;;3.53;;
23782;SDS011;12071;50.850;4.446;2024-01-16T11:06:45;7.05;;;3.15;;
23782;SDS011;12071;50.850;4.446;2024-01-16T11:09:16;9.90;;;3.60;;
23782;SDS011;12071;50.850;4.446;2024-01-16T11:11:46;7.40;;;3.42;;
23782;SDS011;12071;50.850;4.446;2024-01-16T11:14:15;8.32;;;3.25;;
23782;SDS011;12071;50.850;4.446;2024-01-16T11:16:41;9.80;;;3.75;;
23782;SDS011;12071;50.850;4.446;2024-01-16T11:19:08;10.52;;;3.45;;
23782;SDS011;12071;50.850;4.446;2024-01-16T11:21:35;8.23;;;3.10;;
23782;SDS011;12071;50.850;4.446;2024-01-16T11:24:02;10.13;;;2.85;;
23782;SDS011;12071;50.850;4.446;2024-01-16T11:26:31;9.45;;;3.17;;
23782;SDS011;12071;50.850;4.446;2024-01-16T11:28:57;8.90;;;3.33;;
23782;SDS011;12071;50.850;4.446;2024-01-16T11:31:31;7.57;;;3.83;;
23782;SDS011;12071;50.850;4.446;2024-01-16T11:33:58;6.90;;;2.67;;
23782;SDS011;12071;50.850;4.446;2024-01-16T11:39:19;7.38;;;2.75;;
23782;SDS011;12071;50.850;4.446;2024-01-16T11:41:49;9.45;;;2.70;;
23782;SDS011;12071;50.850;4.446;2024-01-16T11:47:07;9.05;;;3.50;;
23782;SDS011;12071;50.850;4.446;2024-01-16T11:49:34;9.13;;;3.50;;
23782;SDS011;12071;50.850;4.446;2024-01-16T11:52:01;9.07;;;3.38;;
23782;SDS011;12071;50.850;4.446;2024-01-16T11:54:27;8.98;;;2.95;;
23782;SDS011;12071;50.850;4.446;2024-01-16T12:02:14;9.35;;;2.78;;
23782;SDS011;12071;50.850;4.446;2024-01-16T12:04:55;7.28;;;2.70;;
23782;SDS011;12071;50.850;4.446;2024-01-16T12:07:22;9.52;;;3.35;;
23782;SDS011;12071;50.850;4.446;2024-01-16T12:09:48;9.80;;;3.35;;
23782;SDS011;12071;50.850;4.446;2024-01-16T12:12:15;8.98;;;3.15;;
23782;SDS011;12071;50.850;4.446;2024-01-16T12:14:41;11.25;;;3.15;;
23782;SDS011;12071;50.850;4.446;2024-01-16T12:17:16;7.88;;;2.92;;
23782;SDS011;12071;50.850;4.446;2024-01-16T12:19:45;8.85;;;3.30;;
23782;SDS011;12071;50.850;4.446;2024-01-16T12:22:14;8.63;;;2.97;;
23782;SDS011;12071;50.850;4.446;2024-01-16T12:24:41;7.13;;;3.45;;
23782;SDS011;12071;50.850;4.446;2024-01-16T12:27:07;7.82;;;3.03;;
23782;SDS011;12071;50.850;4.446;2024-01-16T12:29:34;10.07;;;2.80;;
23782;SDS011;12071;50.850;4.446;2024-01-16T12:32:10;5.85;;;2.50;;
23782;SDS011;12071;50.850;4.446;2024-01-16T12:34:48;11.35;;;2.72;;
23782;SDS011;12071;50.850;4.446;2024-01-16T12:37:14;9.13;;;3.13;;
23782;SDS011;12071;50.850;4.446;2024-01-16T12:39:40;9.23;;;2.80;;
23782;SDS011;12071;50.850;4.446;2024-01-16T12:42:09;10.23;;;3.20;;
23782;SDS011;12071;50.850;4.446;2024-01-16T12:44:35;6.68;;;2.63;;
23782;SDS011;12071;50.850;4.446;2024-01-16T12:47:01;8.07;;;3.42;;
23782;SDS011;12071;50.850;4.446;2024-01-16T12:49:27;9.25;;;2.83;;
23782;SDS011;12071;50.850;4.446;2024-01-16T12:54:57;8.60;;;3.08;;
23782;SDS011;12071;50.850;4.446;2024-01-16T12:57:26;6.82;;;2.50;;
23782;SDS011;12071;50.850;4.446;2024-01-16T12:59:52;7.13;;;2.80;;
23782;SDS011;12071;50.850;4.446;2024-01-16T13:02:22;10.63;;;2.80;;
23782;SDS011;12071;50.850;4.446;2024-01-16T13:04:48;10.05;;;3.08;;
23782;SDS011;12071;50.850;4.446;2024-01-16T13:07:25;10.52;;;3.08;;
23782;SDS011;12071;50.850;4.446;2024-01-16T13:10:13;8.63;;;2.97;;
23782;SDS011;12071;50.850;4.446;2024-01-16T13:12:43;7.78;;;3.15;;
23782;SDS011;12071;50.850;4.446;2024-01-16T13:15:09;10.63;;;3.03;;
23782;SDS011;12071;50.850;4.446;2024-01-16T13:17:36;9.73;;;3.45;;
23782;SDS011;12071;50.850;4.446;2024-01-16T13:20:02;12.27;;;3.60;;
23782;SDS011;12071;50.850;4.446;2024-01-16T13:22:34;7.68;;;3.28;;
23782;SDS011;12071;50.850;4.446;2024-01-16T13:25:00;7.30;;;2.63;;
23782;SDS011;12071;50.850;4.446;2024-01-16T13:27:26;6.40;;;2.92;;
23782;SDS011;12071;50.850;4.446;2024-01-16T13:29:54;8.20;;;2.60;;
23782;SDS011;12071;50.850;4.446;2024-01-16T13:32:20;10.05;;;2.97;;
23782;SDS011;12071;50.850;4.446;2024-01-16T13:34:45;7.95;;;2.75;;
23782;SDS011;12071;50.850;4.446;2024-01-16T13:37:15;8.48;;;3.38;;
23782;SDS011;12071;50.850;4.446;2024-01-16T13:39:46;7.47;;;2.67;;
23782;SDS011;12071;50.850;4.446;2024-01-16T13:42:12;9.88;;;3.35;;
23782;SDS011;12071;50.850;4.446;2024-01-16T13:44:37;6.20;;;2.50;;
23782;SDS011;12071;50.850;4.446;2024-01-16T13:47:03;6.00;;;2.47;;
23782;SDS011;12071;50.850;4.446;2024-01-16T13:49:30;7.43;;;2.35;;
23782;SDS011;12071;50.850;4.446;2024-01-16T13:51:55;9.32;;;3.15;;
23782;SDS011;12071;50.850;4.446;2024-01-16T13:54:21;6.45;;;2.63;;
23782;SDS011;12071;50.850;4.446;2024-01-16T13:56:46;9.02;;;2.47;;
23782;SDS011;12071;50.850;4.446;2024-01-16T13:59:12;6.20;;;2.35;;
23782;SDS011;12071;50.850;4.446;2024-01-16T14:01:38;8.20;;;2.58;;
23782;SDS011;12071;50.850;4.446;2024-01-16T14:04:04;6.00;;;2.50;;
23782;SDS011;12071;50.850;4.446;2024-01-16T14:06:30;9.00;;;2.50;;
23782;SDS011;12071;50.850;4.446;2024-01-16T14:08:56;7.47;;;3.10;;
23782;SDS011;12071;50.850;4.446;2024-01-16T14:11:21;6.60;;;2.75;;
23782;SDS011;12071;50.850;4.446;2024-01-16T14:13:47;5.80;;;2.80;;
23782;SDS011;12071;50.850;4.446;2024-01-16T14:16:13;5.10;;;2.25;;
23782;SDS011;12071;50.850;4.446;2024-01-16T14:18:39;5.88;;;2.42;;
23782;SDS011;12071;50.850;4.446;2024-01-16T14:21:04;7.95;;;2.85;;
23782;SDS011;12071;50.850;4.446;2024-01-16T14:23:30;9.40;;;2.78;;
23782;SDS011;12071;50.850;4.446;2024-01-16T14:25:56;7.18;;;2.67;;
23782;SDS011;12071;50.850;4.446;2024-01-16T14:28:22;6.43;;;2.30;;
23782;SDS011;12071;50.850;4.446;2024-01-16T14:30:52;9.23;;;2.20;;
23782;SDS011;12071;50.850;4.446;2024-01-16T14:33:17;5.72;;;2.13;;
23782;SDS011;12071;50.850;4.446;2024-01-16T14:35:43;6.60;;;2.20;;
23782;SDS011;12071;50.850;4.446;2024-01-16T14:38:09;7.25;;;2.63;;
23782;SDS011;12071;50.850;4.446;2024-01-16T14:40:35;7.55;;;2.50;;
23782;SDS011;12071;50.850;4.446;2024-01-16T14:43:01;5.45;;;2.58;;
23782;SDS011;12071;50.850;4.446;2024-01-16T14:45:30;8.10;;;2.58;;
23782;SDS011;12071;50.850;4.446;2024-01-16T14:47:56;7.10;;;2.38;;
23782;SDS011;12071;50.850;4.446;2024-01-16T14:50:22;6.53;;;2.72;;
23782;SDS011;12071;50.850;4.446;2024-01-16T14:52:49;7.63;;;2.58;;